sensor_id;sensor_type;location;lat;lon;timestamp;pressure;altitude;pressure_sealevel;temperature;humidity
2685;BME280;1352;48.446;9.156;2022-12-07T00:00:30;95283.16;;;4.08;100.00
2685;BME280;1352;48.446;9.156;2022-12-07T00:02:58;95281.31;;;4.10;100.00
2685;BME280;1352;48.446;9.156;2022-12-07T00:05:28;95279.75;;;4.08;100.00
2685;BME280;1352;48.446;9.156;2022-12-07T00:08:05;95265.00;;;4.10;100.00
2685;BME280;1352;48.446;9.156;2022-12-07T00:10:36;95270.25;;;4.08;100.00
2685;BME280;1352;48.446;9.156;2022-12-07T00:13:09;95270.47;;;4.05;100.00
2685;BME280;1352;48.446;9.156;2022-12-07T00:15:37;95265.19;;;4.07;100.00
2685;BME280;1352;48.446;9.156;2022-12-07T00:18:07;95269.75;;;4.03;100.00
2685;BME280;1352;48.446;9.156;2022-12-07T00:20:41;95274.16;;;4.01;100.00
2685;BME280;1352;48.446;9.156;2022-12-07T00:23:10;95270.75;;;4.01;100.00
2685;BME280;1352;48.446;9.156;2022-12-07T00:25:37;95270.03;;;3.99;100.00
2685;BME280;1352;48.446;9.156;2022-12-07T00:28:08;95266.13;;;4.06;100.00
2685;BME280;1352;48.446;9.156;2022-12-07T00:30:36;95270.75;;;4.01;100.00
2685;BME280;1352;48.446;9.156;2022-12-07T00:33:06;95261.91;;;4.05;100.00
2685;BME280;1352;48.446;9.156;2022-12-07T00:35:34;95262.59;;;3.94;100.00
2685;BME280;1352;48.446;9.156;2022-12-07T00:38:01;95272.81;;;3.96;100.00
2685;BME280;1352;48.446;9.156;2022-12-07T00:40:30;95264.53;;;3.91;100.00
2685;BME280;1352;48.446;9.156;2022-12-07T00:42:57;95265.66;;;3.87;100.00
2685;BME280;1352;48.446;9.156;2022-12-07T00:45:25;95256.25;;;3.86;100.00
2685;BME280;1352;48.446;9.156;2022-12-07T00:47:56;95257.91;;;3.87;100.00
2685;BME280;1352;48.446;9.156;2022-12-07T00:50:31;95258.84;;;3.86;100.00
2685;BME280;1352;48.446;9.156;2022-12-07T00:53:02;95260.97;;;3.79;100.00
2685;BME280;1352;48.446;9.156;2022-12-07T00:55:34;95255.28;;;3.74;100.00
2685;BME280;1352;48.446;9.156;2022-12-07T00:58:01;95255.09;;;3.77;100.00
2685;BME280;1352;48.446;9.156;2022-12-07T01:00:28;95256.63;;;3.80;100.00
2685;BME280;1352;48.446;9.156;2022-12-07T01:02:57;95259.69;;;3.72;100.00
2685;BME280;1352;48.446;9.156;2022-12-07T01:05:24;95261.06;;;3.78;100.00
2685;BME280;1352;48.446;9.156;2022-12-07T01:07:52;95264.94;;;3.85;100.00
2685;BME280;1352;48.446;9.156;2022-12-07T01:10:23;95259.13;;;3.81;100.00
2685;BME280;1352;48.446;9.156;2022-12-07T01:12:55;95260.69;;;3.84;100.00
2685;BME280;1352;48.446;9.156;2022-12-07T01:15:25;95256.44;;;3.83;100.00
2685;BME280;1352;48.446;9.156;2022-12-07T01:17:54;95256.13;;;3.87;100.00
2685;BME280;1352;48.446;9.156;2022-12-07T01:20:21;95258.44;;;3.92;100.00
2685;BME280;1352;48.446;9.156;2022-12-07T01:22:55;95260.59;;;3.85;100.00
2685;BME280;1352;48.446;9.156;2022-12-07T01:25:26;95266.59;;;3.86;100.00
2685;BME280;1352;48.446;9.156;2022-12-07T01:27:55;95267.09;;;3.91;100.00
2685;BME280;1352;48.446;9.156;2022-12-07T01:30:23;95270.34;;;3.94;100.00
2685;BME280;1352;48.446;9.156;2022-12-07T01:32:50;95271.59;;;3.74;100.00
2685;BME280;1352;48.446;9.156;2022-12-07T01:35:17;95279.09;;;3.78;100.00
2685;BME280;1352;48.446;9.156;2022-12-07T01:37:44;95284.47;;;3.74;100.00
2685;BME280;1352;48.446;9.156;2022-12-07T01:40:12;95274.78;;;3.78;100.00
2685;BME280;1352;48.446;9.156;2022-12-07T01:42:39;95277.09;;;3.68;100.00
2685;BME280;1352;48.446;9.156;2022-12-07T01:45:44;95271.84;;;3.70;100.00
2685;BME280;1352;48.446;9.156;2022-12-07T01:48:14;95277.56;;;3.75;100.00
2685;BME280;1352;48.446;9.156;2022-12-07T01:50:44;95270.44;;;3.79;100.00
2685;BME280;1352;48.446;9.156;2022-12-07T01:53:13;95271.44;;;3.90;100.00
2685;BME280;1352;48.446;9.156;2022-12-07T01:55:42;95267.00;;;3.92;100.00
2685;BME280;1352;48.446;9.156;2022-12-07T01:58:12;95270.16;;;3.83;100.00
2685;BME280;1352;48.446;9.156;2022-12-07T02:00:45;95276.16;;;3.84;100.00
2685;BME280;1352;48.446;9.156;2022-12-07T02:03:22;95265.00;;;3.83;100.00
2685;BME280;1352;48.446;9.156;2022-12-07T02:05:55;95272.34;;;3.89;100.00
2685;BME280;1352;48.446;9.156;2022-12-07T02:08:25;95269.78;;;3.89;100.00
2685;BME280;1352;48.446;9.156;2022-12-07T02:10:54;95269.78;;;3.89;100.00
2685;BME280;1352;48.446;9.156;2022-12-07T02:13:26;95270.91;;;3.85;100.00
2685;BME280;1352;48.446;9.156;2022-12-07T02:16:14;95271.28;;;3.79;100.00
2685;BME280;1352;48.446;9.156;2022-12-07T02:18:55;95273.69;;;3.82;100.00
2685;BME280;1352;48.446;9.156;2022-12-07T02:21:36;95267.50;;;3.85;100.00
2685;BME280;1352;48.446;9.156;2022-12-07T02:24:25;95271.28;;;3.79;100.00
2685;BME280;1352;48.446;9.156;2022-12-07T02:27:26;95269.00;;;3.74;100.00
2685;BME280;1352;48.446;9.156;2022-12-07T02:30:00;95269.34;;;3.83;100.00
2685;BME280;1352;48.446;9.156;2022-12-07T02:32:40;95273.59;;;3.84;100.00
2685;BME280;1352;48.446;9.156;2022-12-07T02:35:12;95269.88;;;3.88;100.00
2685;BME280;1352;48.446;9.156;2022-12-07T02:37:51;95272.34;;;3.89;100.00
2685;BME280;1352;48.446;9.156;2022-12-07T02:40:25;95267.09;;;3.91;100.00
2685;BME280;1352;48.446;9.156;2022-12-07T02:43:02;95268.19;;;4.01;100.00
2685;BME280;1352;48.446;9.156;2022-12-07T02:45:38;95269.09;;;4.00;100.00
2685;BME280;1352;48.446;9.156;2022-12-07T02:48:07;95279.34;;;4.01;100.00
2685;BME280;1352;48.446;9.156;2022-12-07T02:50:35;95270.66;;;4.02;100.00
2685;BME280;1352;48.446;9.156;2022-12-07T02:53:03;95274.91;;;4.03;100.00
2685;BME280;1352;48.446;9.156;2022-12-07T02:55:37;95275.75;;;4.04;100.00
2685;BME280;1352;48.446;9.156;2022-12-07T02:58:23;95269.59;;;3.92;100.00
2685;BME280;1352;48.446;9.156;2022-12-07T03:01:04;95267.41;;;3.86;100.00
2685;BME280;1352;48.446;9.156;2022-12-07T03:03:37;95273.19;;;3.90;100.00
2685;BME280;1352;48.446;9.156;2022-12-07T03:06:12;95260.97;;;3.79;100.00
2685;BME280;1352;48.446;9.156;2022-12-07T03:08:51;95260.34;;;3.76;100.00
2685;BME280;1352;48.446;9.156;2022-12-07T03:11:24;95265.19;;;3.80;100.00
2685;BME280;1352;48.446;9.156;2022-12-07T03:14:01;95257.09;;;3.86;100.00
2685;BME280;1352;48.446;9.156;2022-12-07T03:16:35;95261.78;;;3.80;100.00
2685;BME280;1352;48.446;9.156;2022-12-07T03:19:10;95260.59;;;3.85;100.00
2685;BME280;1352;48.446;9.156;2022-12-07T03:21:43;95259.22;;;3.80;100.00
2685;BME280;1352;48.446;9.156;2022-12-07T03:24:15;95256.47;;;3.68;100.00
2685;BME280;1352;48.446;9.156;2022-12-07T03:26:49;95258.69;;;3.60;100.00
2685;BME280;1352;48.446;9.156;2022-12-07T03:29:22;95254.94;;;3.52;100.00
2685;BME280;1352;48.446;9.156;2022-12-07T03:31:58;95249.22;;;3.61;100.00
2685;BME280;1352;48.446;9.156;2022-12-07T03:34:32;95246.22;;;3.40;100.00
2685;BME280;1352;48.446;9.156;2022-12-07T03:37:10;95246.16;;;3.13;100.00
2685;BME280;1352;48.446;9.156;2022-12-07T03:39:45;95253.78;;;2.86;100.00
2685;BME280;1352;48.446;9.156;2022-12-07T03:42:15;95258.44;;;2.66;100.00
2685;BME280;1352;48.446;9.156;2022-12-07T03:44:46;95258.28;;;2.69;100.00
2685;BME280;1352;48.446;9.156;2022-12-07T03:47:26;95251.66;;;2.93;100.00
2685;BME280;1352;48.446;9.156;2022-12-07T03:49:58;95248.91;;;2.96;100.00
2685;BME280;1352;48.446;9.156;2022-12-07T03:52:31;95249.38;;;2.88;100.00
2685;BME280;1352;48.446;9.156;2022-12-07T03:55:08;95246.63;;;3.06;100.00
2685;BME280;1352;48.446;9.156;2022-12-07T03:57:40;95249.56;;;3.14;100.00
2685;BME280;1352;48.446;9.156;2022-12-07T04:00:10;95255.44;;;3.16;100.00
2685;BME280;1352;48.446;9.156;2022-12-07T04:02:41;95254.97;;;3.23;100.00
2685;BME280;1352;48.446;9.156;2022-12-07T04:05:09;95257.66;;;3.22;100.00
2685;BME280;1352;48.446;9.156;2022-12-07T04:07:36;95257.56;;;3.23;100.00
2685;BME280;1352;48.446;9.156;2022-12-07T04:10:05;95259.88;;;3.28;100.00
2685;BME280;1352;48.446;9.156;2022-12-07T04:12:37;95260.97;;;3.38;100.00
2685;BME280;1352;48.446;9.156;2022-12-07T04:15:08;95257.16;;;3.44;100.00
2685;BME280;1352;48.446;9.156;2022-12-07T04:17:36;95252.31;;;3.39;100.00
2685;BME280;1352;48.446;9.156;2022-12-07T04:20:07;95257.81;;;3.47;100.00
2685;BME280;1352;48.446;9.156;2022-12-07T04:22:41;95248.13;;;3.51;100.00
2685;BME280;1352;48.446;9.156;2022-12-07T04:25:09;95247.28;;;3.50;100.00
2685;BME280;1352;48.446;9.156;2022-12-07T04:27:39;95248.97;;;3.51;100.00
2685;BME280;1352;48.446;9.156;2022-12-07T04:30:08;95241.63;;;3.45;100.00
2685;BME280;1352;48.446;9.156;2022-12-07T04:32:38;95242.34;;;3.47;100.00
2685;BME280;1352;48.446;9.156;2022-12-07T04:35:09;95239.41;;;3.39;100.00
2685;BME280;1352;48.446;9.156;2022-12-07T04:37:37;95234.09;;;3.28;100.00
2685;BME280;1352;48.446;9.156;2022-12-07T04:40:07;95242.00;;;3.25;100.00
2685;BME280;1352;48.446;9.156;2022-12-07T04:42:43;95240.69;;;3.32;100.00
2685;BME280;1352;48.446;9.156;2022-12-07T04:45:11;95232.53;;;3.25;100.00
2685;BME280;1352;48.446;9.156;2022-12-07T04:47:42;95240.59;;;3.33;100.00
2685;BME280;1352;48.446;9.156;2022-12-07T04:50:12;95236.94;;;3.38;100.00
2685;BME280;1352;48.446;9.156;2022-12-07T04:52:40;95239.22;;;3.42;100.00
2685;BME280;1352;48.446;9.156;2022-12-07T04:55:08;95240.13;;;3.41;100.00
2685;BME280;1352;48.446;9.156;2022-12-07T04:57:36;95243.19;;;3.33;100.00
2685;BME280;1352;48.446;9.156;2022-12-07T05:00:07;95249.66;;;3.26;100.00
2685;BME280;1352;48.446;9.156;2022-12-07T05:02:39;95242.91;;;3.24;100.00
2685;BME280;1352;48.446;9.156;2022-12-07T05:05:07;95238.34;;;3.29;100.00
2685;BME280;1352;48.446;9.156;2022-12-07T05:07:48;95244.97;;;3.19;100.00
2685;BME280;1352;48.446;9.156;2022-12-07T05:10:21;95230.50;;;3.16;100.00
2685;BME280;1352;48.446;9.156;2022-12-07T05:12:53;95240.91;;;3.15;100.00
2685;BME280;1352;48.446;9.156;2022-12-07T05:15:21;95233.25;;;3.13;100.00
2685;BME280;1352;48.446;9.156;2022-12-07T05:17:55;95235.47;;;3.05;100.00
2685;BME280;1352;48.446;9.156;2022-12-07T05:20:24;95238.22;;;3.02;100.00
2685;BME280;1352;48.446;9.156;2022-12-07T05:22:53;95224.44;;;2.89;100.00
2685;BME280;1352;48.446;9.156;2022-12-07T05:25:39;95215.44;;;2.82;100.00
2685;BME280;1352;48.446;9.156;2022-12-07T05:28:16;95215.63;;;2.79;100.00
2685;BME280;1352;48.446;9.156;2022-12-07T05:30:51;95220.66;;;2.66;100.00
2685;BME280;1352;48.446;9.156;2022-12-07T05:33:36;95220.66;;;2.66;100.00
2685;BME280;1352;48.446;9.156;2022-12-07T05:36:10;95222.88;;;2.72;100.00
2685;BME280;1352;48.446;9.156;2022-12-07T05:38:42;95228.19;;;2.69;100.00
2685;BME280;1352;48.446;9.156;2022-12-07T05:41:14;95231.78;;;2.67;100.00
2685;BME280;1352;48.446;9.156;2022-12-07T05:43:58;95224.06;;;2.52;100.00
2685;BME280;1352;48.446;9.156;2022-12-07T05:46:29;95225.53;;;2.27;100.00
2685;BME280;1352;48.446;9.156;2022-12-07T05:48:56;95228.22;;;2.25;100.00
2685;BME280;1352;48.446;9.156;2022-12-07T05:51:23;95236.34;;;2.33;100.00
2685;BME280;1352;48.446;9.156;2022-12-07T05:53:52;95240.72;;;2.31;100.00
2685;BME280;1352;48.446;9.156;2022-12-07T05:56:31;95235.28;;;2.21;100.00
2685;BME280;1352;48.446;9.156;2022-12-07T05:59:21;95234.28;;;2.24;100.00
2685;BME280;1352;48.446;9.156;2022-12-07T06:01:55;95233.38;;;2.25;100.00
2685;BME280;1352;48.446;9.156;2022-12-07T06:04:23;95241.78;;;2.13;100.00
2685;BME280;1352;48.446;9.156;2022-12-07T06:06:58;95240.88;;;2.14;100.00
2685;BME280;1352;48.446;9.156;2022-12-07T06:09:29;95232.72;;;2.21;100.00
2685;BME280;1352;48.446;9.156;2022-12-07T06:11:58;95236.38;;;2.17;100.00
2685;BME280;1352;48.446;9.156;2022-12-07T06:14:49;95241.31;;;2.06;100.00
2685;BME280;1352;48.446;9.156;2022-12-07T06:17:34;95233.00;;;2.01;100.00
2685;BME280;1352;48.446;9.156;2022-12-07T06:20:11;95237.75;;;1.93;100.00
2685;BME280;1352;48.446;9.156;2022-12-07T06:22:55;95235.88;;;1.81;100.00
2685;BME280;1352;48.446;9.156;2022-12-07T06:25:28;95224.09;;;1.77;100.00
2685;BME280;1352;48.446;9.156;2022-12-07T06:27:56;95226.09;;;1.72;100.00
2685;BME280;1352;48.446;9.156;2022-12-07T06:30:23;95227.84;;;1.56;100.00
2685;BME280;1352;48.446;9.156;2022-12-07T06:32:54;95225.97;;;1.59;100.00
2685;BME280;1352;48.446;9.156;2022-12-07T06:35:25;95218.56;;;1.69;100.00
2685;BME280;1352;48.446;9.156;2022-12-07T06:37:52;95220.94;;;1.72;100.00
2685;BME280;1352;48.446;9.156;2022-12-07T06:40:19;95221.78;;;1.72;100.00
2685;BME280;1352;48.446;9.156;2022-12-07T06:42:54;95226.13;;;1.56;100.00
2685;BME280;1352;48.446;9.156;2022-12-07T06:45:29;95222.81;;;1.70;100.00
2685;BME280;1352;48.446;9.156;2022-12-07T06:48:03;95225.19;;;1.73;100.00
2685;BME280;1352;48.446;9.156;2022-12-07T06:50:38;95225.03;;;1.76;100.00
2685;BME280;1352;48.446;9.156;2022-12-07T06:53:09;95222.28;;;1.79;100.00
2685;BME280;1352;48.446;9.156;2022-12-07T06:55:39;95229.06;;;1.80;100.00
2685;BME280;1352;48.446;9.156;2022-12-07T06:58:08;95223.84;;;1.81;100.00
2685;BME280;1352;48.446;9.156;2022-12-07T07:00:36;95234.63;;;1.88;100.00
2685;BME280;1352;48.446;9.156;2022-12-07T07:03:06;95234.63;;;1.88;100.00
2685;BME280;1352;48.446;9.156;2022-12-07T07:05:33;95232.97;;;1.87;100.00
2685;BME280;1352;48.446;9.156;2022-12-07T07:08:01;95239.06;;;2.00;100.00
2685;BME280;1352;48.446;9.156;2022-12-07T07:10:28;95239.47;;;2.08;100.00
2685;BME280;1352;48.446;9.156;2022-12-07T07:12:56;95238.91;;;2.03;100.00
2685;BME280;1352;48.446;9.156;2022-12-07T07:15:25;95240.47;;;2.06;100.00
2685;BME280;1352;48.446;9.156;2022-12-07T07:17:52;95236.16;;;2.06;100.00
2685;BME280;1352;48.446;9.156;2022-12-07T07:20:20;95241.94;;;2.10;98.87
2685;BME280;1352;48.446;9.156;2022-12-07T07:22:48;95244.09;;;2.17;100.00
2685;BME280;1352;48.446;9.156;2022-12-07T07:25:15;95248.00;;;2.24;100.00
2685;BME280;1352;48.446;9.156;2022-12-07T07:27:42;95250.19;;;2.31;100.00
2685;BME280;1352;48.446;9.156;2022-12-07T07:30:10;95252.59;;;2.34;100.00
2685;BME280;1352;48.446;9.156;2022-12-07T07:32:39;95247.94;;;2.10;100.00
2685;BME280;1352;48.446;9.156;2022-12-07T07:35:06;95256.31;;;2.14;100.00
2685;BME280;1352;48.446;9.156;2022-12-07T07:37:34;95259.91;;;1.96;100.00
2685;BME280;1352;48.446;9.156;2022-12-07T07:40:01;95256.28;;;1.84;100.00
2685;BME280;1352;48.446;9.156;2022-12-07T07:42:28;95260.16;;;1.91;100.00
2685;BME280;1352;48.446;9.156;2022-12-07T07:44:55;95262.06;;;2.03;100.00
2685;BME280;1352;48.446;9.156;2022-12-07T07:47:22;95260.34;;;2.18;100.00
2685;BME280;1352;48.446;9.156;2022-12-07T07:49:51;95266.56;;;2.30;100.00
2685;BME280;1352;48.446;9.156;2022-12-07T07:52:18;95255.88;;;2.21;100.00
2685;BME280;1352;48.446;9.156;2022-12-07T07:54:45;95255.63;;;2.26;100.00
2685;BME280;1352;48.446;9.156;2022-12-07T07:57:12;95265.84;;;2.12;100.00
2685;BME280;1352;48.446;9.156;2022-12-07T07:59:40;95262.94;;;1.88;100.00
2685;BME280;1352;48.446;9.156;2022-12-07T08:02:09;95261.22;;;2.03;100.00
2685;BME280;1352;48.446;9.156;2022-12-07T08:04:40;95257.69;;;2.19;100.00
2685;BME280;1352;48.446;9.156;2022-12-07T08:07:09;95250.88;;;2.18;100.00
2685;BME280;1352;48.446;9.156;2022-12-07T08:09:36;95257.16;;;2.14;100.00
2685;BME280;1352;48.446;9.156;2022-12-07T08:12:04;95265.03;;;2.11;100.00
2685;BME280;1352;48.446;9.156;2022-12-07T08:14:32;95264.50;;;2.20;99.66
2685;BME280;1352;48.446;9.156;2022-12-07T08:17:02;95264.81;;;2.30;100.00
2685;BME280;1352;48.446;9.156;2022-12-07T08:19:30;95268.06;;;2.34;100.00
2685;BME280;1352;48.446;9.156;2022-12-07T08:22:03;95264.75;;;2.46;100.00
2685;BME280;1352;48.446;9.156;2022-12-07T08:24:34;95268.00;;;2.49;100.00
2685;BME280;1352;48.446;9.156;2022-12-07T08:27:03;95277.28;;;2.52;100.00
2685;BME280;1352;48.446;9.156;2022-12-07T08:29:43;95281.13;;;2.15;100.00
2685;BME280;1352;48.446;9.156;2022-12-07T08:32:13;95279.41;;;1.84;100.00
2685;BME280;1352;48.446;9.156;2022-12-07T08:34:41;95284.47;;;2.01;100.00
2685;BME280;1352;48.446;9.156;2022-12-07T08:37:19;95285.38;;;2.00;100.00
2685;BME280;1352;48.446;9.156;2022-12-07T08:39:48;95290.47;;;1.86;100.00
2685;BME280;1352;48.446;9.156;2022-12-07T08:42:16;95293.63;;;1.75;100.00
2685;BME280;1352;48.446;9.156;2022-12-07T08:44:43;95299.09;;;1.69;100.00
2685;BME280;1352;48.446;9.156;2022-12-07T08:47:11;95295.09;;;1.79;100.00
2685;BME280;1352;48.446;9.156;2022-12-07T08:49:44;95296.00;;;1.94;100.00
2685;BME280;1352;48.446;9.156;2022-12-07T08:52:18;95287.69;;;2.05;100.00
2685;BME280;1352;48.446;9.156;2022-12-07T08:54:50;95289.91;;;2.11;100.00
2685;BME280;1352;48.446;9.156;2022-12-07T08:57:18;95287.66;;;2.20;100.00
2685;BME280;1352;48.446;9.156;2022-12-07T08:59:46;95286.59;;;2.24;100.00
2685;BME280;1352;48.446;9.156;2022-12-07T09:02:13;95285.22;;;2.33;100.00
2685;BME280;1352;48.446;9.156;2022-12-07T09:04:44;95292.34;;;2.44;100.00
2685;BME280;1352;48.446;9.156;2022-12-07T09:07:15;95294.94;;;2.58;100.00
2685;BME280;1352;48.446;9.156;2022-12-07T09:12:51;95283.56;;;2.62;100.00
2685;BME280;1352;48.446;9.156;2022-12-07T09:15:32;95283.47;;;2.64;100.00
2685;BME280;1352;48.446;9.156;2022-12-07T09:18:02;95287.34;;;2.71;100.00
2685;BME280;1352;48.446;9.156;2022-12-07T09:20:29;95276.75;;;2.75;100.00
2685;BME280;1352;48.446;9.156;2022-12-07T09:22:56;95284.31;;;2.78;100.00
2685;BME280;1352;48.446;9.156;2022-12-07T09:25:32;95287.66;;;2.80;100.00
2685;BME280;1352;48.446;9.156;2022-12-07T09:28:07;95291.69;;;2.84;100.00
2685;BME280;1352;48.446;9.156;2022-12-07T09:30:44;95290.88;;;2.98;100.00
2685;BME280;1352;48.446;9.156;2022-12-07T09:33:19;95296.94;;;2.97;100.00
2685;BME280;1352;48.446;9.156;2022-12-07T09:35:46;95288.59;;;3.08;100.00
2685;BME280;1352;48.446;9.156;2022-12-07T09:38:14;95290.16;;;3.10;100.00
2685;BME280;1352;48.446;9.156;2022-12-07T09:40:42;95291.16;;;3.22;100.00
2685;BME280;1352;48.446;9.156;2022-12-07T09:43:19;95289.16;;;3.27;100.00
2685;BME280;1352;48.446;9.156;2022-12-07T09:45:50;95286.84;;;3.36;100.00
2685;BME280;1352;48.446;9.156;2022-12-07T09:48:29;95283.97;;;3.41;100.00
2685;BME280;1352;48.446;9.156;2022-12-07T09:51:03;95278.06;;;3.53;100.00
2685;BME280;1352;48.446;9.156;2022-12-07T09:53:44;95275.66;;;3.64;100.00
2685;BME280;1352;48.446;9.156;2022-12-07T09:56:13;95267.03;;;3.78;100.00
2685;BME280;1352;48.446;9.156;2022-12-07T09:58:44;95264.94;;;3.70;100.00
2685;BME280;1352;48.446;9.156;2022-12-07T10:01:20;95270.75;;;3.74;100.00
2685;BME280;1352;48.446;9.156;2022-12-07T10:04:12;95270.56;;;3.77;100.00
2685;BME280;1352;48.446;9.156;2022-12-07T10:06:47;95272.19;;;3.92;100.00
2685;BME280;1352;48.446;9.156;2022-12-07T10:09:20;95269.09;;;4.00;100.00
2685;BME280;1352;48.446;9.156;2022-12-07T10:12:03;95267.78;;;4.07;100.00
2685;BME280;1352;48.446;9.156;2022-12-07T10:14:39;95263.53;;;4.06;100.00
2685;BME280;1352;48.446;9.156;2022-12-07T10:17:30;95255.78;;;4.06;100.00
2685;BME280;1352;48.446;9.156;2022-12-07T10:20:21;95255.78;;;4.06;94.47
2685;BME280;1352;48.446;9.156;2022-12-07T10:22:59;95251.97;;;3.99;95.05
2685;BME280;1352;48.446;9.156;2022-12-07T10:25:37;95256.38;;;3.97;93.83
2685;BME280;1352;48.446;9.156;2022-12-07T10:28:14;95253.63;;;4.00;94.60
2685;BME280;1352;48.446;9.156;2022-12-07T10:30:59;95257.03;;;4.00;90.90
2685;BME280;1352;48.446;9.156;2022-12-07T10:33:35;95255.38;;;3.99;91.05
2685;BME280;1352;48.446;9.156;2022-12-07T10:36:33;95249.72;;;4.07;93.65
2685;BME280;1352;48.446;9.156;2022-12-07T10:39:13;95246.88;;;3.97;94.50
2685;BME280;1352;48.446;9.156;2022-12-07T10:42:00;95255.44;;;3.85;94.86
2685;BME280;1352;48.446;9.156;2022-12-07T10:44:35;95251.22;;;3.97;94.08
2685;BME280;1352;48.446;9.156;2022-12-07T10:50:42;95243.97;;;3.89;92.43
2685;BME280;1352;48.446;9.156;2022-12-07T10:53:52;95238.63;;;3.92;91.03
2685;BME280;1352;48.446;9.156;2022-12-07T10:57:06;95227.41;;;3.79;89.00
2685;BME280;1352;48.446;9.156;2022-12-07T10:59:57;95230.06;;;3.92;91.72
2685;BME280;1352;48.446;9.156;2022-12-07T11:05:49;95216.28;;;4.05;95.12
2685;BME280;1352;48.446;9.156;2022-12-07T11:08:51;95219.34;;;3.98;94.90
2685;BME280;1352;48.446;9.156;2022-12-07T11:11:38;95216.22;;;3.93;93.62
2685;BME280;1352;48.446;9.156;2022-12-07T11:14:31;95210.56;;;4.00;95.63
2685;BME280;1352;48.446;9.156;2022-12-07T11:17:12;95213.94;;;3.88;100.00
2685;BME280;1352;48.446;9.156;2022-12-07T11:19:53;95207.47;;;3.95;100.00
2685;BME280;1352;48.446;9.156;2022-12-07T11:22:36;95209.25;;;4.07;96.24
2685;BME280;1352;48.446;9.156;2022-12-07T11:25:25;95198.53;;;4.14;100.00
2685;BME280;1352;48.446;9.156;2022-12-07T11:28:17;95195.97;;;4.14;96.67
2685;BME280;1352;48.446;9.156;2022-12-07T11:31:32;95198.09;;;3.67;96.83
2685;BME280;1352;48.446;9.156;2022-12-07T11:34:19;95205.53;;;3.72;99.43
2685;BME280;1352;48.446;9.156;2022-12-07T11:37:05;95198.03;;;3.82;99.98
2685;BME280;1352;48.446;9.156;2022-12-07T11:39:49;95197.16;;;3.95;99.21
2685;BME280;1352;48.446;9.156;2022-12-07T11:42:30;95185.63;;;4.14;95.63
2685;BME280;1352;48.446;9.156;2022-12-07T11:45:15;95190.91;;;4.25;97.53
2685;BME280;1352;48.446;9.156;2022-12-07T11:51:02;95182.22;;;4.13;96.61
2685;BME280;1352;48.446;9.156;2022-12-07T11:54:01;95179.53;;;4.15;99.13
2685;BME280;1352;48.446;9.156;2022-12-07T11:56:39;95183.00;;;4.01;99.15
2685;BME280;1352;48.446;9.156;2022-12-07T11:59:29;95188.88;;;3.90;99.79
2685;BME280;1352;48.446;9.156;2022-12-07T12:02:19;95174.13;;;3.92;100.00
2685;BME280;1352;48.446;9.156;2022-12-07T12:05:05;95174.16;;;3.78;98.87
2685;BME280;1352;48.446;9.156;2022-12-07T12:07:57;95170.72;;;3.92;100.00
2685;BME280;1352;48.446;9.156;2022-12-07T12:10:55;95167.94;;;4.07;99.16
2685;BME280;1352;48.446;9.156;2022-12-07T12:17:17;95162.22;;;4.42;99.26
2685;BME280;1352;48.446;9.156;2022-12-07T12:20:03;95154.47;;;4.55;100.00
2685;BME280;1352;48.446;9.156;2022-12-07T12:22:41;95150.44;;;4.63;98.38
2685;BME280;1352;48.446;9.156;2022-12-07T12:25:21;95148.28;;;4.70;95.44
2685;BME280;1352;48.446;9.156;2022-12-07T12:27:55;95149.41;;;4.78;98.82
2685;BME280;1352;48.446;9.156;2022-12-07T12:30:40;95137.41;;;4.90;96.47
2685;BME280;1352;48.446;9.156;2022-12-07T12:39:18;95138.44;;;4.88;95.58
2685;BME280;1352;48.446;9.156;2022-12-07T12:42:07;95140.69;;;4.92;96.55
2685;BME280;1352;48.446;9.156;2022-12-07T12:45:22;95128.28;;;4.97;95.57
2685;BME280;1352;48.446;9.156;2022-12-07T12:48:00;95129.94;;;4.98;92.14
2685;BME280;1352;48.446;9.156;2022-12-07T12:53:36;95126.41;;;4.99;90.36
2685;BME280;1352;48.446;9.156;2022-12-07T12:56:32;95118.84;;;5.09;93.32
2685;BME280;1352;48.446;9.156;2022-12-07T12:59:26;95126.09;;;5.04;91.65
2685;BME280;1352;48.446;9.156;2022-12-07T13:02:20;95120.53;;;4.97;91.94
2685;BME280;1352;48.446;9.156;2022-12-07T13:04:53;95121.38;;;4.85;94.41
2685;BME280;1352;48.446;9.156;2022-12-07T13:07:56;95116.84;;;4.76;94.90
2685;BME280;1352;48.446;9.156;2022-12-07T13:10:40;95116.09;;;4.86;95.04
2685;BME280;1352;48.446;9.156;2022-12-07T13:13:38;95110.09;;;4.86;94.69
2685;BME280;1352;48.446;9.156;2022-12-07T13:16:57;95112.06;;;4.82;97.42
2685;BME280;1352;48.446;9.156;2022-12-07T13:23:00;95107.56;;;4.48;100.00
2685;BME280;1352;48.446;9.156;2022-12-07T13:25:51;95101.03;;;4.55;97.79
2685;BME280;1352;48.446;9.156;2022-12-07T13:28:23;95106.00;;;4.58;98.33
2685;BME280;1352;48.446;9.156;2022-12-07T13:31:20;95098.56;;;4.66;97.22
2685;BME280;1352;48.446;9.156;2022-12-07T13:34:28;95089.25;;;4.76;96.86
2685;BME280;1352;48.446;9.156;2022-12-07T13:37:15;95095.31;;;4.88;98.86
2685;BME280;1352;48.446;9.156;2022-12-07T13:39:57;95091.09;;;4.87;97.36
2685;BME280;1352;48.446;9.156;2022-12-07T13:42:28;95096.34;;;4.85;96.98
2685;BME280;1352;48.446;9.156;2022-12-07T13:47:52;95098.19;;;4.96;98.43
2685;BME280;1352;48.446;9.156;2022-12-07T13:50:27;95093.41;;;5.03;98.95
2685;BME280;1352;48.446;9.156;2022-12-07T13:53:17;95093.47;;;4.90;97.55
2685;BME280;1352;48.446;9.156;2022-12-07T13:56:17;95085.41;;;4.82;97.18
2685;BME280;1352;48.446;9.156;2022-12-07T13:58:58;95080.84;;;4.85;97.12
2685;BME280;1352;48.446;9.156;2022-12-07T14:01:51;95077.22;;;4.88;98.80
2685;BME280;1352;48.446;9.156;2022-12-07T14:04:40;95077.41;;;4.98;97.78
2685;BME280;1352;48.446;9.156;2022-12-07T14:07:33;95083.06;;;5.03;97.46
2685;BME280;1352;48.446;9.156;2022-12-07T14:10:22;95079.66;;;5.02;95.70
2685;BME280;1352;48.446;9.156;2022-12-07T14:12:57;95084.75;;;4.91;98.45
2685;BME280;1352;48.446;9.156;2022-12-07T14:15:28;95084.06;;;4.89;97.84
2685;BME280;1352;48.446;9.156;2022-12-07T14:17:58;95081.94;;;4.70;97.48
2685;BME280;1352;48.446;9.156;2022-12-07T14:20:43;95076.97;;;4.67;100.00
2685;BME280;1352;48.446;9.156;2022-12-07T14:23:28;95086.03;;;4.73;100.00
2685;BME280;1352;48.446;9.156;2022-12-07T14:26:19;95086.97;;;4.72;100.00
2685;BME280;1352;48.446;9.156;2022-12-07T14:29:29;95083.88;;;4.79;100.00
2685;BME280;1352;48.446;9.156;2022-12-07T14:32:14;95078.19;;;4.74;100.00
2685;BME280;1352;48.446;9.156;2022-12-07T14:35:00;95075.88;;;4.82;100.00
2685;BME280;1352;48.446;9.156;2022-12-07T14:37:31;95072.59;;;4.80;100.00
2685;BME280;1352;48.446;9.156;2022-12-07T14:40:04;95079.00;;;4.88;99.89
2685;BME280;1352;48.446;9.156;2022-12-07T14:42:48;95080.66;;;4.76;97.99